Time;durP1;ratioP1;P1;durP2;ratioP2;P2;SDS_P1;SDS_P2;PMS_P1;PMS_P2;Temp;Humidity;BMP_temperature;BMP_pressure;BME280_temperature;BME280_humidity;BME280_pressure;Samples;Min_cycle;Max_cycle;Signal;HPM_P1;HPM_P2
2023/01/11 00:01:39;;;;;;;3.17;0.73;;;6.40;99.90;;;;;;12568553;28;20040;-86
2023/01/11 00:07:41;;;;;;;1.35;0.55;;;6.40;99.90;;;;;;12581930;28;20056;-86
2023/01/11 00:13:44;;;;;;;5.53;0.80;;;6.40;99.90;;;;;;12564765;28;20036;-86
2023/01/11 00:19:46;;;;;;;1.17;0.70;;;6.40;99.90;;;;;;12583470;28;20066;-85
2023/01/11 00:25:47;;;;;;;2.45;0.60;;;6.40;99.90;;;;;;12587630;28;20041;-86
2023/01/11 00:31:49;;;;;;;1.65;0.60;;;6.50;99.90;;;;;;12566527;28;20386;-85
2023/01/11 00:37:52;;;;;;;2.78;0.90;;;6.60;99.90;;;;;;12589193;28;20048;-85
2023/01/11 00:50:16;;;;;;;2.78;0.60;;;6.80;99.90;;;;;;12586458;28;20518;-86
2023/01/11 00:56:18;;;;;;;2.03;0.50;;;6.90;99.90;;;;;;12593194;28;20052;-86
2023/01/11 01:02:21;;;;;;;1.70;0.70;;;7.00;99.90;;;;;;12571081;28;20496;-86
2023/01/11 01:08:23;;;;;;;3.30;0.50;;;7.10;99.90;;;;;;12582819;28;20127;-86
2023/01/11 01:14:25;;;;;;;2.60;0.50;;;7.20;99.90;;;;;;12576031;28;20081;-87
2023/01/11 01:20:27;;;;;;;1.80;0.47;;;7.30;99.90;;;;;;12573273;28;20513;-85
2023/01/11 01:26:28;;;;;;;2.47;0.90;;;7.30;99.90;;;;;;12583559;28;20071;-86
2023/01/11 01:32:30;;;;;;;1.98;0.70;;;7.30;99.90;;;;;;12583855;28;20052;-86
2023/01/11 01:38:32;;;;;;;0.60;0.30;;;7.50;99.90;;;;;;12569235;28;20080;-86
2023/01/11 01:44:52;;;;;;;2.05;1.00;;;7.50;99.90;;;;;;12586781;28;20416;-86
2023/01/11 01:50:58;;;;;;;3.40;0.50;;;7.40;99.90;;;;;;12569295;28;20044;-86
2023/01/11 01:57:05;;;;;;;2.17;0.50;;;7.50;99.90;;;;;;12588160;28;20048;-86
2023/01/11 02:03:10;;;;;;;1.73;0.50;;;7.50;99.90;;;;;;12560402;28;20041;-86
2023/01/11 02:09:17;;;;;;;;;;;7.40;99.90;;;;;;12592078;28;20052;-85
2023/01/11 02:15:21;;;;;;;1.00;0.40;;;7.60;99.90;;;;;;12589447;28;19921;-86
2023/01/11 02:21:35;;;;;;;1.75;0.60;;;7.70;99.90;;;;;;12578216;28;20048;-86
2023/01/11 02:28:06;;;;;;;1.15;0.50;;;7.70;99.90;;;;;;12591172;28;20048;-86
2023/01/11 02:34:36;;;;;;;0.95;0.45;;;7.60;99.90;;;;;;12589975;28;20053;-86
2023/01/11 02:40:43;;;;;;;1.92;0.50;;;7.70;99.90;;;;;;12577977;28;20134;-85
2023/01/11 02:46:54;;;;;;;1.63;0.60;;;7.70;99.90;;;;;;12569532;28;20524;-86
2023/01/11 02:53:11;;;;;;;1.30;0.52;;;7.70;99.90;;;;;;12568544;28;20505;-86
2023/01/11 02:59:18;;;;;;;2.53;0.60;;;7.80;99.90;;;;;;12576169;28;20084;-85
2023/01/11 03:05:19;;;;;;;0.75;0.40;;;7.80;99.90;;;;;;12576878;28;20052;-86
2023/01/11 03:18:22;;;;;;;1.65;0.52;;;7.80;99.90;;;;;;12586179;28;20045;-87
2023/01/11 03:24:46;;;;;;;1.75;0.35;;;8.00;99.90;;;;;;12584646;28;20036;-86
2023/01/11 03:31:06;;;;;;;1.20;0.40;;;8.00;99.90;;;;;;12568472;28;20045;-86
2023/01/11 03:37:27;;;;;;;2.63;0.38;;;8.10;99.90;;;;;;12592583;28;20053;-86
2023/01/11 03:43:32;;;;;;;0.45;0.25;;;8.20;99.90;;;;;;12587178;28;20396;-87
2023/01/11 03:49:55;;;;;;;0.70;0.40;;;8.20;99.90;;;;;;12573051;28;20451;-86
2023/01/11 03:55:59;;;;;;;0.82;0.45;;;8.10;99.90;;;;;;12572865;28;20049;-86
2023/01/11 04:02:01;;;;;;;0.80;0.43;;;8.00;99.90;;;;;;12570452;28;20040;-87
2023/01/11 04:08:03;;;;;;;0.80;0.38;;;8.10;99.90;;;;;;12592567;28;20820;-85
2023/01/11 04:14:05;;;;;;;0.50;0.30;;;8.10;99.90;;;;;;12577107;28;20553;-87
2023/01/11 04:20:10;;;;;;;1.70;0.63;;;8.10;99.90;;;;;;12593311;28;20059;-87
2023/01/11 04:26:12;;;;;;;0.50;0.40;;;8.20;99.90;;;;;;12584103;28;20041;-86
2023/01/11 04:32:14;;;;;;;0.73;0.40;;;8.30;99.90;;;;;;12634728;28;20052;-86
2023/01/11 04:38:16;;;;;;;0.73;0.40;;;8.40;99.90;;;;;;12646102;28;20040;-87
2023/01/11 04:44:18;;;;;;;0.55;0.30;;;8.40;99.90;;;;;;12644851;28;20044;-87
2023/01/11 04:50:19;;;;;;;1.55;0.47;;;8.40;99.90;;;;;;12629741;28;20048;-86
2023/01/11 04:56:21;;;;;;;2.72;0.43;;;8.30;99.90;;;;;;12646879;28;20033;-87
2023/01/11 05:02:23;;;;;;;0.75;0.35;;;8.30;99.90;;;;;;12640060;28;20049;-87
2023/01/11 05:08:28;;;;;;;1.17;0.50;;;8.40;99.90;;;;;;12624773;28;20060;-87
2023/01/11 05:14:30;;;;;;;1.37;0.30;;;8.40;99.90;;;;;;12643759;28;20052;-87
2023/01/11 05:20:31;;;;;;;0.50;0.30;;;8.40;99.90;;;;;;12628666;28;20033;-87
2023/01/11 05:26:35;;;;;;;1.48;0.40;;;8.40;99.90;;;;;;12634966;28;20053;-88
2023/01/11 05:32:37;;;;;;;4.13;0.30;;;8.40;99.90;;;;;;12604453;28;20045;-87
2023/01/11 05:38:39;;;;;;;0.30;0.17;;;8.50;99.90;;;;;;12602514;28;20117;-86
2023/01/11 05:51:01;;;;;;;1.23;0.30;;;8.50;99.90;;;;;;12606163;28;20051;-86
2023/01/11 05:57:08;;;;;;;2.45;0.43;;;8.60;99.90;;;;;;12599752;28;20108;-87
2023/01/11 06:03:10;;;;;;;0.30;0.30;;;8.60;99.90;;;;;;12575255;28;20075;-87
2023/01/11 06:09:11;;;;;;;1.95;0.30;;;8.70;99.90;;;;;;12605862;28;20158;-86
2023/01/11 06:15:13;;;;;;;1.15;0.50;;;8.70;99.90;;;;;;12602995;28;20043;-87
2023/01/11 06:21:16;;;;;;;1.85;0.50;;;8.80;99.90;;;;;;12596334;28;20606;-87
2023/01/11 06:27:18;;;;;;;0.60;0.47;;;8.80;99.90;;;;;;12562103;28;20053;-86
2023/01/11 06:33:21;;;;;;;0.65;0.40;;;8.80;99.90;;;;;;12592244;28;20056;-87
2023/01/11 06:39:23;;;;;;;1.52;0.50;;;8.90;99.90;;;;;;12578669;28;20045;-87
2023/01/11 06:45:25;;;;;;;2.05;0.35;;;8.80;99.90;;;;;;12576028;28;20216;-87
2023/01/11 06:51:26;;;;;;;1.92;0.60;;;8.90;99.90;;;;;;12577384;28;20047;-87
2023/01/11 06:57:28;;;;;;;1.27;0.70;;;8.90;99.90;;;;;;12596670;28;20131;-87
2023/01/11 07:03:30;;;;;;;1.88;0.60;;;9.00;99.90;;;;;;12567601;28;20048;-87
2023/01/11 07:09:32;;;;;;;2.90;0.65;;;9.10;99.90;;;;;;12586456;28;20053;-87
2023/01/11 07:15:34;;;;;;;1.17;0.68;;;9.00;99.90;;;;;;12575579;28;20045;-88
2023/01/11 07:21:36;;;;;;;3.03;0.70;;;9.10;99.90;;;;;;12585372;28;20537;-87
2023/01/11 07:27:37;;;;;;;2.78;0.80;;;9.10;99.90;;;;;;12566228;28;20040;-87
2023/01/11 07:33:40;;;;;;;2.22;0.95;;;9.10;99.90;;;;;;12589019;28;20416;-87
2023/01/11 07:39:42;;;;;;;1.15;0.70;;;9.10;99.90;;;;;;12576703;28;20045;-87
2023/01/11 07:45:48;;;;;;;1.95;0.98;;;9.20;99.90;;;;;;12574475;28;20064;-87
2023/01/11 07:51:53;;;;;;;1.55;0.90;;;9.20;99.90;;;;;;12572982;28;20626;-87
2023/01/11 07:57:56;;;;;;;1.30;0.82;;;9.20;99.90;;;;;;12588624;28;20046;-87
2023/01/11 08:03:58;;;;;;;1.10;0.80;;;9.20;99.90;;;;;;12579702;28;20070;-87
2023/01/11 08:09:59;;;;;;;2.20;1.13;;;9.20;99.90;;;;;;12571011;28;20473;-87
2023/01/11 08:16:01;;;;;;;2.00;1.10;;;9.30;99.90;;;;;;12581044;28;20131;-87
2023/01/11 08:22:03;;;;;;;2.42;1.10;;;9.30;99.90;;;;;;12587856;28;20385;-87
2023/01/11 08:28:06;;;;;;;1.58;1.05;;;9.30;99.90;;;;;;12568762;28;20060;-88
2023/01/11 08:34:08;;;;;;;4.38;1.65;;;9.30;99.90;;;;;;12585858;28;20072;-87
2023/01/11 08:40:10;;;;;;;2.00;1.13;;;9.30;99.90;;;;;;12583227;28;20098;-87
2023/01/11 08:46:12;;;;;;;2.92;1.50;;;9.30;99.90;;;;;;12561826;28;20071;-87
2023/01/11 08:52:14;;;;;;;1.98;1.38;;;9.40;99.90;;;;;;12580058;28;20048;-87
2023/01/11 08:58:16;;;;;;;1.70;1.20;;;9.30;99.90;;;;;;12583272;28;20053;-87
2023/01/11 09:04:17;;;;;;;3.10;1.40;;;9.40;99.90;;;;;;12580851;28;20044;-87
2023/01/11 09:10:26;;;;;;;2.30;1.60;;;9.40;99.90;;;;;;12588234;28;20123;-87
2023/01/11 09:16:27;;;;;;;3.67;2.50;;;9.40;99.90;;;;;;12587559;28;20044;-87
2023/01/11 09:22:29;;;;;;;3.30;2.70;;;9.40;99.90;;;;;;12595841;28;20040;-87
2023/01/11 09:28:31;;;;;;;4.10;3.28;;;9.50;99.90;;;;;;12558388;28;20057;-87
2023/01/11 09:34:33;;;;;;;5.30;4.03;;;9.40;99.90;;;;;;12573853;28;20052;-87
2023/01/11 09:40:50;;;;;;;5.13;3.85;;;9.50;99.90;;;;;;12576783;28;20403;-87
2023/01/11 09:46:59;;;;;;;6.57;4.95;;;9.50;99.90;;;;;;12566427;28;20109;-88
2023/01/11 09:53:08;;;;;;;6.30;5.18;;;9.50;99.90;;;;;;12563399;28;20082;-87
2023/01/11 09:59:36;;;;;;;7.65;6.53;;;9.60;99.90;;;;;;12592281;28;20512;-87
2023/01/11 10:05:50;;;;;;;9.27;7.65;;;9.60;99.90;;;;;;12580105;28;20423;-87
2023/01/11 10:12:13;;;;;;;8.98;7.50;;;9.70;99.90;;;;;;12596884;28;20198;-87
2023/01/11 10:18:54;;;;;;;9.43;7.40;;;9.60;99.90;;;;;;12585062;28;20044;-87
2023/01/11 10:25:29;;;;;;;10.50;8.32;;;9.70;99.90;;;;;;12580762;28;20048;-88
2023/01/11 10:38:22;;;;;;;12.05;8.93;;;9.70;99.90;;;;;;12576699;28;20044;-87
2023/01/11 10:44:36;;;;;;;12.98;9.07;;;9.80;99.90;;;;;;12573170;28;20136;-87
2023/01/11 10:51:04;;;;;;;14.73;9.77;;;9.70;99.90;;;;;;12581028;28;20435;-87
2023/01/11 10:57:10;;;;;;;17.15;9.25;;;9.80;99.90;;;;;;12571002;28;20121;-87
2023/01/11 11:03:26;;;;;;;11.25;7.55;;;9.70;99.90;;;;;;12563060;28;20523;-86
2023/01/11 11:09:55;;;;;;;12.05;7.00;;;9.90;99.90;;;;;;12577975;28;20059;-87
2023/01/11 11:16:03;;;;;;;10.10;5.93;;;10.00;99.90;;;;;;12569743;28;20040;-87
2023/01/11 11:22:05;;;;;;;12.15;6.57;;;10.00;99.90;;;;;;12567228;28;20571;-87
2023/01/11 11:28:32;;;;;;;14.30;6.78;;;10.10;99.90;;;;;;12571887;28;20048;-87
2023/01/11 11:34:34;;;;;;;12.07;5.45;;;10.00;99.90;;;;;;12586541;28;20117;-87
2023/01/11 11:40:37;;;;;;;11.02;5.30;;;10.00;99.90;;;;;;12582222;28;20049;-87
2023/01/11 11:46:39;;;;;;;12.63;4.60;;;10.10;99.90;;;;;;12578741;28;20075;-87
2023/01/11 11:52:41;;;;;;;10.52;4.53;;;10.10;99.90;;;;;;12568050;28;20040;-87
2023/01/11 11:58:44;;;;;;;16.08;4.47;;;10.00;99.90;;;;;;12587302;28;20044;-86
2023/01/11 12:04:48;;;;;;;11.93;4.22;;;10.00;99.90;;;;;;12581782;28;20071;-87
2023/01/11 12:10:56;;;;;;;11.57;4.32;;;10.10;99.90;;;;;;12582634;28;20051;-86
2023/01/11 12:16:58;;;;;;;9.73;3.97;;;10.00;99.90;;;;;;12586150;28;20083;-87
2023/01/11 12:23:22;;;;;;;15.23;4.05;;;10.10;99.90;;;;;;12582289;28;20040;-86
2023/01/11 12:29:24;;;;;;;8.23;3.13;;;10.10;99.90;;;;;;12582487;28;20469;-87
2023/01/11 12:35:35;;;;;;;11.05;3.33;;;10.20;99.90;;;;;;12582307;28;20048;-87
2023/01/11 12:41:56;;;;;;;10.77;2.92;;;10.20;99.90;;;;;;12572693;28;20040;-87
2023/01/11 12:48:09;;;;;;;9.48;2.60;;;10.00;99.90;;;;;;12556524;28;20056;-87
2023/01/11 12:54:29;;;;;;;17.38;3.55;;;9.80;99.90;;;;;;12562716;28;20044;-86
2023/01/11 13:01:20;;;;;;;11.63;2.67;;;9.80;99.90;;;;;;12584823;28;20048;-86
2023/01/11 13:07:51;;;;;;;7.45;2.15;;;9.80;99.90;;;;;;12554300;28;20049;-87
2023/01/11 13:14:01;;;;;;;16.88;2.63;;;9.70;99.90;;;;;;12528531;28;20451;-86
2023/01/11 13:20:22;;;;;;;10.55;2.60;;;9.50;99.90;;;;;;12582617;28;20048;-86
2023/01/11 13:26:33;;;;;;;10.93;1.83;;;9.60;99.90;;;;;;12581609;28;20056;-86
2023/01/11 13:32:39;;;;;;;10.82;2.10;;;9.50;99.90;;;;;;12579363;28;20044;-86
2023/01/11 13:38:59;;;;;;;9.73;2.22;;;9.50;99.90;;;;;;12564421;28;20044;-86
2023/01/11 13:45:12;;;;;;;11.73;2.10;;;9.50;99.90;;;;;;12582284;28;20055;-86
2023/01/11 13:51:13;;;;;;;9.65;2.65;;;9.40;99.90;;;;;;12562200;28;20052;-86
2023/01/11 13:57:42;;;;;;;10.73;2.33;;;9.30;99.90;;;;;;12576972;28;20456;-87
2023/01/11 14:03:55;;;;;;;15.23;2.50;;;9.20;99.90;;;;;;12577187;28;20060;-86
2023/01/11 14:10:24;;;;;;;11.45;2.47;;;9.20;99.90;;;;;;12585449;28;20045;-86
2023/01/11 14:16:47;;;;;;;9.75;2.63;;;9.20;99.90;;;;;;12575338;28;20058;-86
2023/01/11 14:23:09;;;;;;;10.15;2.35;;;9.20;99.90;;;;;;12586928;28;20443;-86
2023/01/11 14:29:39;;;;;;;8.80;2.10;;;9.20;99.90;;;;;;12590826;28;20504;-86
2023/01/11 14:35:41;;;;;;;11.75;2.20;;;9.20;99.90;;;;;;12584996;28;20557;-86
2023/01/11 14:41:43;;;;;;;13.88;2.55;;;9.10;99.90;;;;;;12588563;28;20052;-86
2023/01/11 14:47:57;;;;;;;9.60;2.05;;;9.00;99.90;;;;;;12569604;28;20045;-86
2023/01/11 14:54:15;;;;;;;9.40;1.75;;;9.00;99.90;;;;;;12565403;28;20055;-86
2023/01/11 15:00:17;;;;;;;13.65;2.22;;;9.00;99.90;;;;;;12571573;28;20446;-86
2023/01/11 15:06:21;;;;;;;13.18;2.00;;;8.90;99.90;;;;;;12590706;28;20048;-87
2023/01/11 15:12:34;;;;;;;10.17;2.33;;;8.60;99.90;;;;;;12557539;28;20215;-86
2023/01/11 15:18:43;;;;;;;8.65;1.80;;;8.50;99.90;;;;;;12571103;28;20048;-86
2023/01/11 15:24:58;;;;;;;13.82;2.33;;;8.40;99.90;;;;;;12569649;28;20091;-86
2023/01/11 15:31:04;;;;;;;15.88;2.38;;;8.40;99.90;;;;;;12581564;28;20112;-86
2023/01/11 15:37:47;;;;;;;10.25;1.77;;;8.10;99.90;;;;;;12568185;28;20518;-87
2023/01/11 15:44:27;;;;;;;11.10;1.90;;;8.00;99.90;;;;;;12558185;28;20055;-86
2023/01/11 15:50:39;;;;;;;15.18;2.05;;;8.00;99.90;;;;;;12563875;28;20045;-86
2023/01/11 15:57:15;;;;;;;8.82;2.10;;;7.90;99.90;;;;;;12565364;28;20056;-86
2023/01/11 16:03:39;;;;;;;18.40;3.10;;;7.90;99.90;;;;;;12563450;28;20067;-87
2023/01/11 16:10:17;;;;;;;11.50;2.50;;;7.90;99.90;;;;;;12579219;28;20131;-86
2023/01/11 16:16:25;;;;;;;15.10;2.95;;;7.90;99.90;;;;;;12554169;28;20135;-86
2023/01/11 16:22:27;;;;;;;12.20;2.28;;;7.90;99.90;;;;;;12582151;28;20040;-86
2023/01/11 16:28:29;;;;;;;14.00;3.40;;;7.80;99.90;;;;;;12565230;28;20538;-86
2023/01/11 16:34:44;;;;;;;13.07;2.90;;;7.90;99.90;;;;;;12562431;28;20052;-86
2023/01/11 16:40:52;;;;;;;12.27;3.03;;;7.80;99.90;;;;;;12564830;28;20040;-86
2023/01/11 16:47:05;;;;;;;12.73;3.33;;;7.70;99.90;;;;;;12560041;28;20093;-86
2023/01/11 16:53:12;;;;;;;11.38;3.03;;;7.80;99.90;;;;;;12574890;28;20119;-87
2023/01/11 16:59:13;;;;;;;22.55;3.83;;;7.70;99.90;;;;;;12587090;28;20052;-86
2023/01/11 17:05:22;;;;;;;12.85;3.58;;;7.60;99.90;;;;;;12560121;28;20052;-86
2023/01/11 17:11:34;;;;;;;20.05;3.65;;;7.60;99.90;;;;;;12562356;28;20053;-85
2023/01/11 17:17:36;;;;;;;9.13;2.63;;;7.60;99.90;;;;;;12580940;28;20101;-86
2023/01/11 17:23:43;;;;;;;11.65;3.17;;;7.60;99.90;;;;;;12583113;28;20048;-86
2023/01/11 17:29:46;;;;;;;16.65;3.15;;;7.60;99.90;;;;;;12565420;28;20687;-86
2023/01/11 17:35:48;;;;;;;18.30;3.08;;;7.50;99.90;;;;;;12588122;28;20040;-86
2023/01/11 17:48:14;;;;;;;16.13;2.53;;;7.50;99.90;;;;;;12599494;28;20056;-86
2023/01/11 17:54:22;;;;;;;12.07;3.15;;;7.50;99.90;;;;;;12588401;28;20048;-86
2023/01/11 18:00:27;;;;;;;15.02;3.28;;;7.50;99.90;;;;;;12587172;28;20716;-87
2023/01/11 18:06:29;;;;;;;;;;;7.50;99.90;;;;;;12564810;28;20101;-86
2023/01/11 18:12:32;;;;;;;14.88;3.78;;;7.40;99.90;;;;;;12593966;28;20281;-86
2023/01/11 18:18:46;;;;;;;17.90;3.23;;;7.30;99.90;;;;;;12573746;28;20053;-85
2023/01/11 18:24:53;;;;;;;15.35;3.40;;;7.30;99.90;;;;;;12568346;28;20177;-86
2023/01/11 18:30:58;;;;;;;14.05;3.25;;;7.50;99.90;;;;;;12571562;28;20057;-86
2023/01/11 18:37:05;;;;;;;13.52;2.83;;;7.50;99.90;;;;;;12563301;28;20397;-85
2023/01/11 18:43:09;;;;;;;18.10;3.70;;;7.50;99.90;;;;;;12591269;28;20131;-85
2023/01/11 18:49:11;;;;;;;14.10;3.55;;;7.50;99.90;;;;;;12571514;28;20056;-85
2023/01/11 18:55:13;;;;;;;14.68;2.75;;;7.50;99.90;;;;;;12588832;28;20072;-86
2023/01/11 19:01:15;;;;;;;14.73;2.67;;;7.50;99.90;;;;;;12569947;28;20055;-86
2023/01/11 19:07:17;;;;;;;10.43;2.75;;;7.40;99.90;;;;;;12590129;28;20105;-86
2023/01/11 19:13:19;;;;;;;17.50;2.97;;;7.30;99.90;;;;;;12571315;28;20058;-86
2023/01/11 19:19:21;;;;;;;17.55;2.83;;;7.40;99.90;;;;;;12571911;28;20060;-85
2023/01/11 19:25:23;;;;;;;16.30;2.97;;;7.40;99.90;;;;;;12585752;28;20048;-86
2023/01/11 19:31:25;;;;;;;18.02;3.30;;;7.30;99.90;;;;;;12587129;28;20044;-85
2023/01/11 19:37:27;;;;;;;14.90;2.65;;;7.20;99.90;;;;;;12560638;28;20147;-85
2023/01/11 19:43:29;;;;;;;11.98;2.47;;;7.40;99.90;;;;;;12585355;28;20052;-86
2023/01/11 19:49:31;;;;;;;16.13;2.63;;;7.40;99.90;;;;;;12572097;28;20056;-85
2023/01/11 19:55:32;;;;;;;16.25;3.20;;;7.30;99.90;;;;;;12587292;28;20055;-86
2023/01/11 20:01:34;;;;;;;12.07;2.08;;;7.30;99.90;;;;;;12586563;28;20071;-85
2023/01/11 20:07:36;;;;;;;12.63;2.72;;;7.30;99.90;;;;;;12579193;28;20049;-85
2023/01/11 20:13:38;;;;;;;15.55;2.35;;;7.40;99.90;;;;;;12590118;28;20068;-85
2023/01/11 20:19:42;;;;;;;13.38;2.28;;;7.40;99.90;;;;;;12593928;28;20054;-86
2023/01/11 20:25:43;;;;;;;10.07;2.10;;;7.50;99.90;;;;;;12566076;28;20037;-86
2023/01/11 20:31:47;;;;;;;14.02;1.90;;;7.60;99.90;;;;;;12565793;28;20059;-85
2023/01/11 20:37:49;;;;;;;13.63;1.90;;;7.70;99.90;;;;;;12567031;28;20484;-85
2023/01/11 20:43:51;;;;;;;11.02;2.22;;;7.70;99.90;;;;;;12580869;28;20649;-85
2023/01/11 20:49:53;;;;;;;13.38;1.67;;;7.80;99.90;;;;;;12575695;28;20056;-85
2023/01/11 20:55:55;;;;;;;10.82;1.65;;;7.80;99.90;;;;;;12582434;28;20074;-85
2023/01/11 21:01:57;;;;;;;7.78;1.92;;;7.90;99.90;;;;;;12579252;28;20117;-85
2023/01/11 21:07:58;;;;;;;13.95;2.35;;;7.90;99.90;;;;;;12567086;28;20102;-85
2023/01/11 21:14:03;;;;;;;9.75;1.50;;;8.00;99.90;;;;;;12569643;28;20636;-85
2023/01/11 21:20:06;;;;;;;10.82;1.83;;;8.00;99.90;;;;;;12575256;28;20174;-85
2023/01/11 21:26:16;;;;;;;12.27;1.92;;;8.10;99.90;;;;;;12567433;28;20044;-85
2023/01/11 21:32:18;;;;;;;10.20;1.85;;;8.00;99.90;;;;;;12579347;28;20055;-85
2023/01/11 21:38:19;;;;;;;14.50;2.20;;;7.90;99.90;;;;;;12580263;28;20101;-85
2023/01/11 21:44:24;;;;;;;10.85;2.33;;;7.90;99.90;;;;;;12564734;28;20037;-86
2023/01/11 21:50:27;;;;;;;15.90;1.92;;;7.90;99.90;;;;;;12585325;28;20171;-85
2023/01/11 21:56:29;;;;;;;11.95;1.95;;;8.00;99.90;;;;;;12579821;28;20044;-86
2023/01/11 22:02:31;;;;;;;16.55;2.30;;;7.90;99.90;;;;;;12563727;28;20114;-85
2023/01/11 22:08:34;;;;;;;12.45;2.03;;;7.70;99.90;;;;;;12568282;28;20416;-85
2023/01/11 22:14:36;;;;;;;11.07;2.20;;;7.60;99.90;;;;;;12562885;28;20538;-86
2023/01/11 22:20:39;;;;;;;12.52;2.25;;;7.60;99.90;;;;;;12571238;28;20342;-86
2023/01/11 22:26:41;;;;;;;10.95;1.85;;;7.60;99.90;;;;;;12584652;28;20186;-86
2023/01/11 22:32:43;;;;;;;13.00;1.90;;;7.50;99.90;;;;;;12585678;28;20044;-86
2023/01/11 22:38:45;;;;;;;16.27;1.90;;;7.40;99.90;;;;;;12575974;28;20087;-85
2023/01/11 22:44:47;;;;;;;12.18;1.95;;;7.40;99.90;;;;;;12574456;28;20045;-85
2023/01/11 22:50:49;;;;;;;18.90;2.45;;;7.40;99.90;;;;;;12589083;28;20048;-86
2023/01/11 22:56:51;;;;;;;12.10;2.10;;;7.30;99.90;;;;;;12589641;28;20044;-86
2023/01/11 23:02:55;;;;;;;8.75;1.42;;;7.20;99.90;;;;;;12584800;28;20041;-86
2023/01/11 23:08:57;;;;;;;10.35;1.92;;;7.10;99.90;;;;;;12570135;28;20402;-85
2023/01/11 23:14:59;;;;;;;10.02;2.10;;;7.00;99.90;;;;;;12587508;28;20047;-87
2023/01/11 23:21:02;;;;;;;14.10;2.00;;;7.00;99.90;;;;;;12576351;28;20048;-86
2023/01/11 23:27:04;;;;;;;17.48;2.10;;;7.00;99.90;;;;;;12582822;28;20048;-86
2023/01/11 23:33:06;;;;;;;10.32;1.73;;;7.00;99.90;;;;;;12562410;28;20102;-86
2023/01/11 23:39:14;;;;;;;9.32;1.42;;;6.90;99.90;;;;;;12575071;28;20056;-86
2023/01/11 23:45:15;;;;;;;8.98;2.28;;;7.00;99.90;;;;;;12575603;28;20131;-85
2023/01/11 23:51:17;;;;;;;10.07;1.73;;;7.00;99.90;;;;;;12581188;28;20412;-86
2023/01/11 23:57:20;;;;;;;11.88;2.10;;;7.10;99.90;;;;;;12584917;28;20071;-86
